sensor_id;sensor_type;location;lat;lon;timestamp;P1;durP1;ratioP1;P2;durP2;ratioP2
7316;SDS011;3699;51.462;6.696;2022-12-15T00:00:08;46.03;;;25.50;;
7316;SDS011;3699;51.462;6.696;2022-12-15T00:02:53;53.00;;;25.77;;
7316;SDS011;3699;51.462;6.696;2022-12-15T00:05:37;48.17;;;24.33;;
7316;SDS011;3699;51.462;6.696;2022-12-15T00:08:22;57.83;;;26.53;;
7316;SDS011;3699;51.462;6.696;2022-12-15T00:11:06;55.07;;;26.03;;
7316;SDS011;3699;51.462;6.696;2022-12-15T00:13:50;43.80;;;23.80;;
7316;SDS011;3699;51.462;6.696;2022-12-15T00:16:35;45.60;;;24.33;;
7316;SDS011;3699;51.462;6.696;2022-12-15T00:19:19;52.83;;;25.60;;
7316;SDS011;3699;51.462;6.696;2022-12-15T00:22:03;55.10;;;25.67;;
7316;SDS011;3699;51.462;6.696;2022-12-15T00:24:49;56.60;;;27.90;;
7316;SDS011;3699;51.462;6.696;2022-12-15T00:27:33;65.50;;;30.47;;
7316;SDS011;3699;51.462;6.696;2022-12-15T00:30:17;62.83;;;31.70;;
7316;SDS011;3699;51.462;6.696;2022-12-15T00:33:05;66.43;;;31.60;;
7316;SDS011;3699;51.462;6.696;2022-12-15T00:35:50;58.30;;;29.90;;
7316;SDS011;3699;51.462;6.696;2022-12-15T00:38:34;57.30;;;30.27;;
7316;SDS011;3699;51.462;6.696;2022-12-15T00:41:09;53.70;;;27.13;;
7316;SDS011;3699;51.462;6.696;2022-12-15T00:43:37;50.73;;;25.87;;
7316;SDS011;3699;51.462;6.696;2022-12-15T00:46:04;58.60;;;26.50;;
7316;SDS011;3699;51.462;6.696;2022-12-15T00:48:49;59.33;;;27.97;;
7316;SDS011;3699;51.462;6.696;2022-12-15T00:51:16;46.67;;;26.20;;
7316;SDS011;3699;51.462;6.696;2022-12-15T00:53:42;51.13;;;27.60;;
7316;SDS011;3699;51.462;6.696;2022-12-15T00:56:28;56.87;;;27.93;;
7316;SDS011;3699;51.462;6.696;2022-12-15T00:59:13;55.97;;;26.30;;
7316;SDS011;3699;51.462;6.696;2022-12-15T01:01:57;52.57;;;25.57;;
7316;SDS011;3699;51.462;6.696;2022-12-15T01:04:42;54.27;;;25.83;;
7316;SDS011;3699;51.462;6.696;2022-12-15T01:07:26;54.00;;;26.30;;
7316;SDS011;3699;51.462;6.696;2022-12-15T01:10:10;47.87;;;24.27;;
7316;SDS011;3699;51.462;6.696;2022-12-15T01:12:56;50.63;;;24.83;;
7316;SDS011;3699;51.462;6.696;2022-12-15T01:15:40;50.87;;;24.00;;
7316;SDS011;3699;51.462;6.696;2022-12-15T01:18:24;46.70;;;24.70;;
7316;SDS011;3699;51.462;6.696;2022-12-15T01:21:09;48.40;;;23.60;;
7316;SDS011;3699;51.462;6.696;2022-12-15T01:23:37;41.60;;;22.63;;
7316;SDS011;3699;51.462;6.696;2022-12-15T01:26:05;43.43;;;22.57;;
7316;SDS011;3699;51.462;6.696;2022-12-15T01:28:33;47.67;;;23.23;;
7316;SDS011;3699;51.462;6.696;2022-12-15T01:31:01;47.40;;;23.47;;
7316;SDS011;3699;51.462;6.696;2022-12-15T01:33:27;43.43;;;22.50;;
7316;SDS011;3699;51.462;6.696;2022-12-15T01:35:55;42.17;;;21.20;;
7316;SDS011;3699;51.462;6.696;2022-12-15T01:38:23;49.47;;;22.43;;
7316;SDS011;3699;51.462;6.696;2022-12-15T01:40:50;40.53;;;22.27;;
7316;SDS011;3699;51.462;6.696;2022-12-15T01:43:19;41.40;;;21.97;;
7316;SDS011;3699;51.462;6.696;2022-12-15T01:45:56;45.70;;;24.00;;
7316;SDS011;3699;51.462;6.696;2022-12-15T01:48:28;42.77;;;23.30;;
7316;SDS011;3699;51.462;6.696;2022-12-15T01:51:03;49.60;;;25.33;;
7316;SDS011;3699;51.462;6.696;2022-12-15T01:53:36;48.37;;;24.17;;
7316;SDS011;3699;51.462;6.696;2022-12-15T01:56:06;39.03;;;22.60;;
7316;SDS011;3699;51.462;6.696;2022-12-15T01:58:34;42.87;;;22.10;;
7316;SDS011;3699;51.462;6.696;2022-12-15T02:01:03;42.33;;;22.17;;
7316;SDS011;3699;51.462;6.696;2022-12-15T02:03:30;38.67;;;20.80;;
7316;SDS011;3699;51.462;6.696;2022-12-15T02:05:58;44.00;;;21.53;;
7316;SDS011;3699;51.462;6.696;2022-12-15T02:08:25;41.60;;;21.53;;
7316;SDS011;3699;51.462;6.696;2022-12-15T02:10:56;47.10;;;23.23;;
7316;SDS011;3699;51.462;6.696;2022-12-15T02:13:38;42.67;;;21.40;;
7316;SDS011;3699;51.462;6.696;2022-12-15T02:16:14;44.60;;;21.97;;
7316;SDS011;3699;51.462;6.696;2022-12-15T02:18:49;40.47;;;21.90;;
7316;SDS011;3699;51.462;6.696;2022-12-15T02:21:25;39.93;;;20.27;;
7316;SDS011;3699;51.462;6.696;2022-12-15T02:24:12;50.70;;;22.13;;
7316;SDS011;3699;51.462;6.696;2022-12-15T02:30:07;46.20;;;22.70;;
7316;SDS011;3699;51.462;6.696;2022-12-15T02:32:39;46.00;;;21.93;;
7316;SDS011;3699;51.462;6.696;2022-12-15T02:35:13;38.60;;;21.80;;
7316;SDS011;3699;51.462;6.696;2022-12-15T02:37:45;42.97;;;22.33;;
7316;SDS011;3699;51.462;6.696;2022-12-15T02:40:12;39.60;;;22.47;;
7316;SDS011;3699;51.462;6.696;2022-12-15T02:42:41;45.63;;;23.57;;
7316;SDS011;3699;51.462;6.696;2022-12-15T02:45:13;43.77;;;22.07;;
7316;SDS011;3699;51.462;6.696;2022-12-15T02:47:42;40.03;;;21.77;;
7316;SDS011;3699;51.462;6.696;2022-12-15T02:50:23;43.57;;;20.50;;
7316;SDS011;3699;51.462;6.696;2022-12-15T02:53:02;47.80;;;23.60;;
7316;SDS011;3699;51.462;6.696;2022-12-15T02:55:40;53.03;;;22.77;;
7316;SDS011;3699;51.462;6.696;2022-12-15T02:58:13;47.80;;;23.27;;
7316;SDS011;3699;51.462;6.696;2022-12-15T03:00:58;41.33;;;21.70;;
7316;SDS011;3699;51.462;6.696;2022-12-15T03:03:28;46.83;;;23.40;;
7316;SDS011;3699;51.462;6.696;2022-12-15T03:05:58;43.90;;;23.70;;
7316;SDS011;3699;51.462;6.696;2022-12-15T03:08:26;46.23;;;23.30;;
7316;SDS011;3699;51.462;6.696;2022-12-15T03:10:53;39.77;;;21.63;;
7316;SDS011;3699;51.462;6.696;2022-12-15T03:13:21;46.13;;;24.07;;
7316;SDS011;3699;51.462;6.696;2022-12-15T03:15:48;45.43;;;22.53;;
7316;SDS011;3699;51.462;6.696;2022-12-15T03:18:17;47.70;;;21.83;;
7316;SDS011;3699;51.462;6.696;2022-12-15T03:20:44;39.83;;;21.13;;
7316;SDS011;3699;51.462;6.696;2022-12-15T03:23:11;44.23;;;22.80;;
7316;SDS011;3699;51.462;6.696;2022-12-15T03:25:38;50.17;;;22.53;;
7316;SDS011;3699;51.462;6.696;2022-12-15T03:28:05;44.93;;;22.67;;
7316;SDS011;3699;51.462;6.696;2022-12-15T03:30:31;49.93;;;22.53;;
7316;SDS011;3699;51.462;6.696;2022-12-15T03:32:58;45.53;;;23.03;;
7316;SDS011;3699;51.462;6.696;2022-12-15T03:35:26;42.07;;;21.80;;
7316;SDS011;3699;51.462;6.696;2022-12-15T03:37:53;47.90;;;22.47;;
7316;SDS011;3699;51.462;6.696;2022-12-15T03:40:19;43.93;;;23.73;;
7316;SDS011;3699;51.462;6.696;2022-12-15T03:42:46;43.47;;;22.33;;
7316;SDS011;3699;51.462;6.696;2022-12-15T03:45:13;50.40;;;24.40;;
7316;SDS011;3699;51.462;6.696;2022-12-15T03:47:40;45.53;;;23.97;;
7316;SDS011;3699;51.462;6.696;2022-12-15T03:50:08;43.33;;;23.40;;
7316;SDS011;3699;51.462;6.696;2022-12-15T03:52:36;49.63;;;23.70;;
7316;SDS011;3699;51.462;6.696;2022-12-15T03:55:03;39.37;;;21.77;;
7316;SDS011;3699;51.462;6.696;2022-12-15T03:57:31;47.23;;;24.13;;
7316;SDS011;3699;51.462;6.696;2022-12-15T03:59:58;43.13;;;23.07;;
7316;SDS011;3699;51.462;6.696;2022-12-15T04:02:25;54.90;;;24.37;;
7316;SDS011;3699;51.462;6.696;2022-12-15T04:04:52;48.10;;;24.77;;
7316;SDS011;3699;51.462;6.696;2022-12-15T04:07:19;41.23;;;22.77;;
7316;SDS011;3699;51.462;6.696;2022-12-15T04:09:47;47.40;;;24.67;;
7316;SDS011;3699;51.462;6.696;2022-12-15T04:12:13;47.43;;;22.80;;
7316;SDS011;3699;51.462;6.696;2022-12-15T04:14:40;49.33;;;26.53;;
7316;SDS011;3699;51.462;6.696;2022-12-15T04:17:07;49.07;;;24.97;;
7316;SDS011;3699;51.462;6.696;2022-12-15T04:19:34;50.63;;;25.17;;
7316;SDS011;3699;51.462;6.696;2022-12-15T04:22:18;48.30;;;25.10;;
7316;SDS011;3699;51.462;6.696;2022-12-15T04:24:47;46.17;;;23.50;;
7316;SDS011;3699;51.462;6.696;2022-12-15T04:27:31;54.83;;;27.80;;
7316;SDS011;3699;51.462;6.696;2022-12-15T04:30:16;57.07;;;26.83;;
7316;SDS011;3699;51.462;6.696;2022-12-15T04:33:00;54.27;;;27.70;;
7316;SDS011;3699;51.462;6.696;2022-12-15T04:35:47;58.33;;;26.40;;
7316;SDS011;3699;51.462;6.696;2022-12-15T04:38:33;51.20;;;24.73;;
7316;SDS011;3699;51.462;6.696;2022-12-15T04:41:19;53.07;;;27.30;;
7316;SDS011;3699;51.462;6.696;2022-12-15T04:44:05;51.37;;;25.73;;
7316;SDS011;3699;51.462;6.696;2022-12-15T04:46:49;56.80;;;27.10;;
7316;SDS011;3699;51.462;6.696;2022-12-15T04:49:34;48.93;;;26.13;;
7316;SDS011;3699;51.462;6.696;2022-12-15T04:52:18;51.63;;;24.93;;
7316;SDS011;3699;51.462;6.696;2022-12-15T04:55:02;56.83;;;25.47;;
7316;SDS011;3699;51.462;6.696;2022-12-15T04:57:48;52.10;;;25.23;;
7316;SDS011;3699;51.462;6.696;2022-12-15T05:00:32;53.07;;;25.03;;
7316;SDS011;3699;51.462;6.696;2022-12-15T05:03:16;52.47;;;26.13;;
7316;SDS011;3699;51.462;6.696;2022-12-15T05:06:00;48.53;;;24.37;;
7316;SDS011;3699;51.462;6.696;2022-12-15T05:08:44;50.40;;;25.23;;
7316;SDS011;3699;51.462;6.696;2022-12-15T05:11:28;52.07;;;27.23;;
7316;SDS011;3699;51.462;6.696;2022-12-15T05:14:14;56.67;;;26.43;;
7316;SDS011;3699;51.462;6.696;2022-12-15T05:16:58;45.97;;;25.70;;
7316;SDS011;3699;51.462;6.696;2022-12-15T05:19:42;57.70;;;28.87;;
7316;SDS011;3699;51.462;6.696;2022-12-15T05:22:26;53.70;;;27.03;;
7316;SDS011;3699;51.462;6.696;2022-12-15T05:25:10;70.47;;;30.83;;
7316;SDS011;3699;51.462;6.696;2022-12-15T05:27:54;67.80;;;31.23;;
7316;SDS011;3699;51.462;6.696;2022-12-15T05:30:40;56.37;;;29.27;;
7316;SDS011;3699;51.462;6.696;2022-12-15T05:33:24;57.97;;;30.53;;
7316;SDS011;3699;51.462;6.696;2022-12-15T05:35:50;60.73;;;29.63;;
7316;SDS011;3699;51.462;6.696;2022-12-15T05:38:17;62.97;;;29.07;;
7316;SDS011;3699;51.462;6.696;2022-12-15T05:40:44;60.20;;;28.10;;
7316;SDS011;3699;51.462;6.696;2022-12-15T05:43:11;56.20;;;27.73;;
7316;SDS011;3699;51.462;6.696;2022-12-15T05:45:37;56.50;;;27.20;;
7316;SDS011;3699;51.462;6.696;2022-12-15T05:48:05;51.77;;;26.80;;
7316;SDS011;3699;51.462;6.696;2022-12-15T05:50:32;52.37;;;25.93;;
7316;SDS011;3699;51.462;6.696;2022-12-15T05:52:59;47.67;;;24.40;;
7316;SDS011;3699;51.462;6.696;2022-12-15T05:55:26;70.63;;;26.20;;
7316;SDS011;3699;51.462;6.696;2022-12-15T05:57:52;61.43;;;26.20;;
7316;SDS011;3699;51.462;6.696;2022-12-15T06:00:19;58.00;;;25.23;;
7316;SDS011;3699;51.462;6.696;2022-12-15T06:02:48;47.03;;;24.30;;
7316;SDS011;3699;51.462;6.696;2022-12-15T06:05:15;51.87;;;25.97;;
7316;SDS011;3699;51.462;6.696;2022-12-15T06:07:41;55.13;;;25.37;;
7316;SDS011;3699;51.462;6.696;2022-12-15T06:10:08;50.83;;;25.63;;
7316;SDS011;3699;51.462;6.696;2022-12-15T06:12:35;56.87;;;27.37;;
7316;SDS011;3699;51.462;6.696;2022-12-15T06:15:02;57.60;;;26.63;;
7316;SDS011;3699;51.462;6.696;2022-12-15T06:17:29;59.90;;;25.83;;
7316;SDS011;3699;51.462;6.696;2022-12-15T06:19:58;63.23;;;28.57;;
7316;SDS011;3699;51.462;6.696;2022-12-15T06:22:26;57.57;;;25.83;;
7316;SDS011;3699;51.462;6.696;2022-12-15T06:24:53;64.30;;;27.37;;
7316;SDS011;3699;51.462;6.696;2022-12-15T06:27:20;57.70;;;26.77;;
7316;SDS011;3699;51.462;6.696;2022-12-15T06:29:47;57.63;;;28.30;;
7316;SDS011;3699;51.462;6.696;2022-12-15T06:32:13;64.87;;;27.97;;
7316;SDS011;3699;51.462;6.696;2022-12-15T06:34:40;59.37;;;27.27;;
7316;SDS011;3699;51.462;6.696;2022-12-15T06:37:08;60.13;;;27.23;;
7316;SDS011;3699;51.462;6.696;2022-12-15T06:39:35;67.10;;;29.33;;
7316;SDS011;3699;51.462;6.696;2022-12-15T06:42:02;63.13;;;27.63;;
7316;SDS011;3699;51.462;6.696;2022-12-15T06:44:28;61.53;;;28.53;;
7316;SDS011;3699;51.462;6.696;2022-12-15T06:46:55;65.53;;;29.13;;
7316;SDS011;3699;51.462;6.696;2022-12-15T06:49:22;61.00;;;28.10;;
7316;SDS011;3699;51.462;6.696;2022-12-15T06:51:49;68.53;;;28.40;;
7316;SDS011;3699;51.462;6.696;2022-12-15T06:54:17;60.93;;;28.50;;
7316;SDS011;3699;51.462;6.696;2022-12-15T06:56:43;75.33;;;29.90;;
7316;SDS011;3699;51.462;6.696;2022-12-15T06:59:10;72.13;;;28.33;;
7316;SDS011;3699;51.462;6.696;2022-12-15T07:01:37;66.83;;;29.03;;
7316;SDS011;3699;51.462;6.696;2022-12-15T07:04:05;73.70;;;29.80;;
7316;SDS011;3699;51.462;6.696;2022-12-15T07:06:32;83.50;;;29.77;;
7316;SDS011;3699;51.462;6.696;2022-12-15T07:09:01;73.00;;;30.03;;
7316;SDS011;3699;51.462;6.696;2022-12-15T07:11:30;75.07;;;28.73;;
7316;SDS011;3699;51.462;6.696;2022-12-15T07:13:57;70.03;;;30.70;;
7316;SDS011;3699;51.462;6.696;2022-12-15T07:16:24;74.50;;;29.63;;
7316;SDS011;3699;51.462;6.696;2022-12-15T07:18:50;72.77;;;30.20;;
7316;SDS011;3699;51.462;6.696;2022-12-15T07:21:18;82.50;;;30.67;;
7316;SDS011;3699;51.462;6.696;2022-12-15T07:23:45;81.23;;;32.30;;
7316;SDS011;3699;51.462;6.696;2022-12-15T07:26:11;75.97;;;30.33;;
7316;SDS011;3699;51.462;6.696;2022-12-15T07:28:39;73.17;;;31.03;;
7316;SDS011;3699;51.462;6.696;2022-12-15T07:31:07;79.67;;;31.67;;
7316;SDS011;3699;51.462;6.696;2022-12-15T07:33:36;76.43;;;31.50;;
7316;SDS011;3699;51.462;6.696;2022-12-15T07:36:03;73.67;;;31.47;;
7316;SDS011;3699;51.462;6.696;2022-12-15T07:38:32;86.23;;;30.93;;
7316;SDS011;3699;51.462;6.696;2022-12-15T07:40:59;81.73;;;32.43;;
7316;SDS011;3699;51.462;6.696;2022-12-15T07:43:27;79.53;;;32.50;;
7316;SDS011;3699;51.462;6.696;2022-12-15T07:45:56;91.07;;;33.90;;
7316;SDS011;3699;51.462;6.696;2022-12-15T07:48:22;89.83;;;33.50;;
7316;SDS011;3699;51.462;6.696;2022-12-15T07:50:51;96.57;;;34.00;;
7316;SDS011;3699;51.462;6.696;2022-12-15T07:53:21;90.43;;;34.53;;
7316;SDS011;3699;51.462;6.696;2022-12-15T07:55:52;86.97;;;33.30;;
7316;SDS011;3699;51.462;6.696;2022-12-15T07:58:19;86.53;;;33.33;;
7316;SDS011;3699;51.462;6.696;2022-12-15T08:00:46;112.13;;;39.97;;
7316;SDS011;3699;51.462;6.696;2022-12-15T08:03:15;97.33;;;36.93;;
7316;SDS011;3699;51.462;6.696;2022-12-15T08:05:42;102.97;;;38.80;;
7316;SDS011;3699;51.462;6.696;2022-12-15T08:08:10;147.50;;;53.57;;
7316;SDS011;3699;51.462;6.696;2022-12-15T08:10:37;110.50;;;41.37;;
7316;SDS011;3699;51.462;6.696;2022-12-15T08:13:04;130.43;;;52.27;;
7316;SDS011;3699;51.462;6.696;2022-12-15T08:15:33;128.50;;;51.33;;
7316;SDS011;3699;51.462;6.696;2022-12-15T08:18:00;102.50;;;42.93;;
7316;SDS011;3699;51.462;6.696;2022-12-15T08:20:28;106.40;;;41.50;;
7316;SDS011;3699;51.462;6.696;2022-12-15T08:22:55;107.03;;;41.57;;
7316;SDS011;3699;51.462;6.696;2022-12-15T08:25:24;114.03;;;49.20;;
7316;SDS011;3699;51.462;6.696;2022-12-15T08:27:52;111.90;;;44.83;;
7316;SDS011;3699;51.462;6.696;2022-12-15T08:30:19;145.00;;;60.43;;
7316;SDS011;3699;51.462;6.696;2022-12-15T08:32:46;105.67;;;40.80;;
7316;SDS011;3699;51.462;6.696;2022-12-15T08:35:13;119.10;;;50.93;;
7316;SDS011;3699;51.462;6.696;2022-12-15T08:37:41;96.27;;;42.00;;
7316;SDS011;3699;51.462;6.696;2022-12-15T08:40:08;170.13;;;80.83;;
7316;SDS011;3699;51.462;6.696;2022-12-15T08:42:35;156.70;;;77.67;;
7316;SDS011;3699;51.462;6.696;2022-12-15T08:45:03;113.27;;;50.20;;
7316;SDS011;3699;51.462;6.696;2022-12-15T08:47:31;114.40;;;58.10;;
7316;SDS011;3699;51.462;6.696;2022-12-15T08:49:57;93.30;;;40.53;;
7316;SDS011;3699;51.462;6.696;2022-12-15T08:52:24;104.00;;;52.67;;
7316;SDS011;3699;51.462;6.696;2022-12-15T08:54:53;93.77;;;39.27;;
7316;SDS011;3699;51.462;6.696;2022-12-15T08:57:19;84.67;;;37.13;;
7316;SDS011;3699;51.462;6.696;2022-12-15T08:59:46;90.93;;;40.43;;
7316;SDS011;3699;51.462;6.696;2022-12-15T09:02:13;88.07;;;36.77;;
7316;SDS011;3699;51.462;6.696;2022-12-15T09:04:40;81.90;;;36.07;;
7316;SDS011;3699;51.462;6.696;2022-12-15T09:07:08;88.50;;;40.10;;
7316;SDS011;3699;51.462;6.696;2022-12-15T09:09:34;85.10;;;37.77;;
7316;SDS011;3699;51.462;6.696;2022-12-15T09:12:03;87.70;;;36.33;;
7316;SDS011;3699;51.462;6.696;2022-12-15T09:14:30;104.43;;;47.73;;
7316;SDS011;3699;51.462;6.696;2022-12-15T09:16:57;197.33;;;81.70;;
7316;SDS011;3699;51.462;6.696;2022-12-15T09:19:23;530.23;;;261.50;;
7316;SDS011;3699;51.462;6.696;2022-12-15T09:21:50;155.20;;;67.43;;
7316;SDS011;3699;51.462;6.696;2022-12-15T09:24:17;95.20;;;46.87;;
7316;SDS011;3699;51.462;6.696;2022-12-15T09:26:43;229.23;;;124.77;;
7316;SDS011;3699;51.462;6.696;2022-12-15T09:29:12;174.63;;;91.57;;
7316;SDS011;3699;51.462;6.696;2022-12-15T09:31:39;125.87;;;59.53;;
7316;SDS011;3699;51.462;6.696;2022-12-15T09:34:10;127.30;;;46.97;;
7316;SDS011;3699;51.462;6.696;2022-12-15T09:36:38;143.27;;;53.53;;
7316;SDS011;3699;51.462;6.696;2022-12-15T09:39:05;139.30;;;62.23;;
7316;SDS011;3699;51.462;6.696;2022-12-15T09:41:33;88.17;;;36.77;;
7316;SDS011;3699;51.462;6.696;2022-12-15T09:44:01;371.03;;;139.70;;
7316;SDS011;3699;51.462;6.696;2022-12-15T09:46:34;190.43;;;61.93;;
7316;SDS011;3699;51.462;6.696;2022-12-15T09:49:10;333.17;;;95.87;;
7316;SDS011;3699;51.462;6.696;2022-12-15T09:51:43;146.00;;;48.80;;
7316;SDS011;3699;51.462;6.696;2022-12-15T09:54:16;340.77;;;118.63;;
7316;SDS011;3699;51.462;6.696;2022-12-15T09:56:45;220.90;;;78.73;;
7316;SDS011;3699;51.462;6.696;2022-12-15T09:59:20;143.77;;;60.60;;
7316;SDS011;3699;51.462;6.696;2022-12-15T10:01:58;188.50;;;78.43;;
7316;SDS011;3699;51.462;6.696;2022-12-15T10:04:37;109.17;;;45.47;;
7316;SDS011;3699;51.462;6.696;2022-12-15T10:07:13;92.20;;;44.57;;
7316;SDS011;3699;51.462;6.696;2022-12-15T10:09:45;95.47;;;45.13;;
7316;SDS011;3699;51.462;6.696;2022-12-15T10:12:13;147.93;;;69.57;;
7316;SDS011;3699;51.462;6.696;2022-12-15T10:14:44;148.53;;;71.47;;
7316;SDS011;3699;51.462;6.696;2022-12-15T10:17:18;154.97;;;82.20;;
7316;SDS011;3699;51.462;6.696;2022-12-15T10:19:48;110.73;;;55.83;;
7316;SDS011;3699;51.462;6.696;2022-12-15T10:22:21;108.73;;;48.37;;
7316;SDS011;3699;51.462;6.696;2022-12-15T10:24:49;129.57;;;60.70;;
7316;SDS011;3699;51.462;6.696;2022-12-15T10:27:19;102.93;;;43.67;;
7316;SDS011;3699;51.462;6.696;2022-12-15T10:30:00;85.97;;;39.63;;
7316;SDS011;3699;51.462;6.696;2022-12-15T10:32:32;101.23;;;44.93;;
7316;SDS011;3699;51.462;6.696;2022-12-15T10:35:11;91.93;;;40.60;;
7316;SDS011;3699;51.462;6.696;2022-12-15T10:37:41;94.23;;;42.57;;
7316;SDS011;3699;51.462;6.696;2022-12-15T10:40:08;79.00;;;36.67;;
7316;SDS011;3699;51.462;6.696;2022-12-15T10:42:44;89.00;;;38.73;;
7316;SDS011;3699;51.462;6.696;2022-12-15T10:45:27;82.37;;;35.83;;
7316;SDS011;3699;51.462;6.696;2022-12-15T10:47:58;90.63;;;37.53;;
7316;SDS011;3699;51.462;6.696;2022-12-15T10:50:28;90.53;;;37.30;;
7316;SDS011;3699;51.462;6.696;2022-12-15T10:52:55;93.17;;;38.80;;
7316;SDS011;3699;51.462;6.696;2022-12-15T10:55:30;84.00;;;38.37;;
7316;SDS011;3699;51.462;6.696;2022-12-15T10:58:01;96.57;;;42.20;;
7316;SDS011;3699;51.462;6.696;2022-12-15T11:00:30;91.70;;;40.33;;
7316;SDS011;3699;51.462;6.696;2022-12-15T11:02:59;87.10;;;37.83;;
7316;SDS011;3699;51.462;6.696;2022-12-15T11:05:26;88.17;;;38.73;;
7316;SDS011;3699;51.462;6.696;2022-12-15T11:07:53;96.23;;;46.87;;
7316;SDS011;3699;51.462;6.696;2022-12-15T11:10:22;91.37;;;37.43;;
7316;SDS011;3699;51.462;6.696;2022-12-15T11:12:54;89.93;;;38.63;;
7316;SDS011;3699;51.462;6.696;2022-12-15T11:18:13;102.33;;;45.70;;
7316;SDS011;3699;51.462;6.696;2022-12-15T11:20:48;102.40;;;45.50;;
7316;SDS011;3699;51.462;6.696;2022-12-15T11:23:19;93.73;;;42.43;;
7316;SDS011;3699;51.462;6.696;2022-12-15T11:25:54;129.37;;;57.83;;
7316;SDS011;3699;51.462;6.696;2022-12-15T11:28:27;99.97;;;40.93;;
7316;SDS011;3699;51.462;6.696;2022-12-15T11:31:01;110.03;;;43.80;;
7316;SDS011;3699;51.462;6.696;2022-12-15T11:33:33;125.93;;;45.67;;
7316;SDS011;3699;51.462;6.696;2022-12-15T11:36:03;128.83;;;50.73;;
7316;SDS011;3699;51.462;6.696;2022-12-15T11:38:40;130.13;;;51.13;;
7316;SDS011;3699;51.462;6.696;2022-12-15T11:41:12;134.87;;;52.07;;
7316;SDS011;3699;51.462;6.696;2022-12-15T11:43:55;114.20;;;46.30;;
7316;SDS011;3699;51.462;6.696;2022-12-15T11:46:40;133.20;;;49.77;;
7316;SDS011;3699;51.462;6.696;2022-12-15T11:49:16;117.70;;;52.70;;
7316;SDS011;3699;51.462;6.696;2022-12-15T11:52:08;123.47;;;52.83;;
7316;SDS011;3699;51.462;6.696;2022-12-15T11:54:42;131.07;;;52.93;;
7316;SDS011;3699;51.462;6.696;2022-12-15T11:57:18;127.73;;;53.53;;
7316;SDS011;3699;51.462;6.696;2022-12-15T12:00:01;134.63;;;54.67;;
7316;SDS011;3699;51.462;6.696;2022-12-15T12:02:37;127.20;;;49.47;;
7316;SDS011;3699;51.462;6.696;2022-12-15T12:05:36;114.20;;;46.07;;
7316;SDS011;3699;51.462;6.696;2022-12-15T12:08:15;126.67;;;47.33;;
7316;SDS011;3699;51.462;6.696;2022-12-15T12:11:02;136.27;;;52.00;;
7316;SDS011;3699;51.462;6.696;2022-12-15T12:13:38;133.73;;;51.07;;
7316;SDS011;3699;51.462;6.696;2022-12-15T12:16:22;154.93;;;58.83;;
7316;SDS011;3699;51.462;6.696;2022-12-15T12:18:59;158.43;;;59.27;;
7316;SDS011;3699;51.462;6.696;2022-12-15T12:21:30;132.80;;;54.43;;
7316;SDS011;3699;51.462;6.696;2022-12-15T12:23:59;150.37;;;61.33;;
7316;SDS011;3699;51.462;6.696;2022-12-15T12:26:30;168.23;;;90.63;;
7316;SDS011;3699;51.462;6.696;2022-12-15T12:29:11;154.53;;;71.47;;
7316;SDS011;3699;51.462;6.696;2022-12-15T12:31:45;117.57;;;49.63;;
7316;SDS011;3699;51.462;6.696;2022-12-15T12:34:24;130.47;;;51.73;;
7316;SDS011;3699;51.462;6.696;2022-12-15T12:36:56;138.40;;;55.53;;
7316;SDS011;3699;51.462;6.696;2022-12-15T12:39:29;143.80;;;60.20;;
7316;SDS011;3699;51.462;6.696;2022-12-15T12:41:59;162.37;;;61.87;;
7316;SDS011;3699;51.462;6.696;2022-12-15T12:44:31;134.77;;;51.47;;
7316;SDS011;3699;51.462;6.696;2022-12-15T12:47:03;126.67;;;48.77;;
7316;SDS011;3699;51.462;6.696;2022-12-15T12:49:36;126.40;;;45.77;;
7316;SDS011;3699;51.462;6.696;2022-12-15T12:52:12;115.10;;;47.10;;
7316;SDS011;3699;51.462;6.696;2022-12-15T12:54:48;117.67;;;46.30;;
7316;SDS011;3699;51.462;6.696;2022-12-15T12:57:28;120.87;;;46.13;;
7316;SDS011;3699;51.462;6.696;2022-12-15T13:05:41;136.63;;;55.43;;
7316;SDS011;3699;51.462;6.696;2022-12-15T13:14:28;117.03;;;48.33;;
7316;SDS011;3699;51.462;6.696;2022-12-15T13:17:02;136.40;;;60.37;;
7316;SDS011;3699;51.462;6.696;2022-12-15T13:22:45;95.43;;;41.30;;
7316;SDS011;3699;51.462;6.696;2022-12-15T13:25:25;113.73;;;47.87;;
7316;SDS011;3699;51.462;6.696;2022-12-15T13:28:23;112.10;;;47.10;;
7316;SDS011;3699;51.462;6.696;2022-12-15T13:31:18;114.50;;;49.73;;
7316;SDS011;3699;51.462;6.696;2022-12-15T13:34:09;112.20;;;51.17;;
7316;SDS011;3699;51.462;6.696;2022-12-15T13:36:45;107.07;;;43.70;;
7316;SDS011;3699;51.462;6.696;2022-12-15T13:42:35;161.70;;;73.90;;
7316;SDS011;3699;51.462;6.696;2022-12-15T13:45:13;342.47;;;165.37;;
7316;SDS011;3699;51.462;6.696;2022-12-15T13:48:01;266.73;;;114.33;;
7316;SDS011;3699;51.462;6.696;2022-12-15T13:50:47;134.37;;;55.13;;
7316;SDS011;3699;51.462;6.696;2022-12-15T13:53:21;101.63;;;42.20;;
7316;SDS011;3699;51.462;6.696;2022-12-15T13:55:58;118.03;;;50.97;;
7316;SDS011;3699;51.462;6.696;2022-12-15T13:58:31;142.07;;;60.57;;
7316;SDS011;3699;51.462;6.696;2022-12-15T14:01:15;120.97;;;53.87;;
7316;SDS011;3699;51.462;6.696;2022-12-15T14:03:56;127.27;;;54.73;;
7316;SDS011;3699;51.462;6.696;2022-12-15T14:06:24;109.33;;;45.77;;
7316;SDS011;3699;51.462;6.696;2022-12-15T14:08:53;118.30;;;48.13;;
7316;SDS011;3699;51.462;6.696;2022-12-15T14:11:22;105.67;;;43.80;;
7316;SDS011;3699;51.462;6.696;2022-12-15T14:13:49;104.47;;;43.83;;
7316;SDS011;3699;51.462;6.696;2022-12-15T14:16:17;96.13;;;40.77;;
7316;SDS011;3699;51.462;6.696;2022-12-15T14:19:03;101.97;;;43.70;;
7316;SDS011;3699;51.462;6.696;2022-12-15T14:21:37;102.70;;;42.07;;
7316;SDS011;3699;51.462;6.696;2022-12-15T14:24:14;107.90;;;45.03;;
7316;SDS011;3699;51.462;6.696;2022-12-15T14:26:46;87.43;;;39.90;;
7316;SDS011;3699;51.462;6.696;2022-12-15T14:29:13;103.33;;;44.63;;
7316;SDS011;3699;51.462;6.696;2022-12-15T14:31:45;104.90;;;44.93;;
7316;SDS011;3699;51.462;6.696;2022-12-15T14:34:26;95.93;;;43.10;;
7316;SDS011;3699;51.462;6.696;2022-12-15T14:36:57;95.77;;;44.17;;
7316;SDS011;3699;51.462;6.696;2022-12-15T14:39:27;95.83;;;40.37;;
7316;SDS011;3699;51.462;6.696;2022-12-15T14:41:58;99.47;;;38.73;;
7316;SDS011;3699;51.462;6.696;2022-12-15T14:44:27;92.70;;;40.93;;
7316;SDS011;3699;51.462;6.696;2022-12-15T14:47:00;86.70;;;39.60;;
7316;SDS011;3699;51.462;6.696;2022-12-15T14:49:31;103.80;;;42.57;;
7316;SDS011;3699;51.462;6.696;2022-12-15T14:52:05;93.47;;;40.47;;
7316;SDS011;3699;51.462;6.696;2022-12-15T14:54:49;86.77;;;39.77;;
7316;SDS011;3699;51.462;6.696;2022-12-15T14:57:20;95.67;;;40.43;;
7316;SDS011;3699;51.462;6.696;2022-12-15T14:59:48;93.50;;;39.23;;
7316;SDS011;3699;51.462;6.696;2022-12-15T15:02:17;89.70;;;40.87;;
7316;SDS011;3699;51.462;6.696;2022-12-15T15:04:55;97.00;;;41.20;;
7316;SDS011;3699;51.462;6.696;2022-12-15T15:07:27;89.70;;;39.63;;
7316;SDS011;3699;51.462;6.696;2022-12-15T15:09:55;88.17;;;38.17;;
7316;SDS011;3699;51.462;6.696;2022-12-15T15:12:22;91.87;;;39.93;;
7316;SDS011;3699;51.462;6.696;2022-12-15T15:14:50;93.83;;;38.70;;
7316;SDS011;3699;51.462;6.696;2022-12-15T15:17:21;92.80;;;39.93;;
7316;SDS011;3699;51.462;6.696;2022-12-15T15:19:51;91.20;;;39.10;;
7316;SDS011;3699;51.462;6.696;2022-12-15T15:22:34;91.10;;;40.43;;
7316;SDS011;3699;51.462;6.696;2022-12-15T15:25:18;99.60;;;39.83;;
7316;SDS011;3699;51.462;6.696;2022-12-15T15:27:51;91.23;;;39.70;;
7316;SDS011;3699;51.462;6.696;2022-12-15T15:30:27;97.00;;;40.30;;
7316;SDS011;3699;51.462;6.696;2022-12-15T15:32:55;98.60;;;40.33;;
7316;SDS011;3699;51.462;6.696;2022-12-15T15:35:23;88.87;;;38.40;;
7316;SDS011;3699;51.462;6.696;2022-12-15T15:37:56;82.83;;;37.93;;
7316;SDS011;3699;51.462;6.696;2022-12-15T15:40:27;95.10;;;40.13;;